sensor_id;sensor_type;location;lat;lon;timestamp;temperature;humidity
11083;DHT22;5595;50.186;8.468;2023-05-21T00:01:34;16.80;99.90
11083;DHT22;5595;50.186;8.468;2023-05-21T00:04:01;16.90;99.90
11083;DHT22;5595;50.186;8.468;2023-05-21T00:06:28;16.80;99.90
11083;DHT22;5595;50.186;8.468;2023-05-21T00:08:56;16.90;99.90
11083;DHT22;5595;50.186;8.468;2023-05-21T00:11:23;16.90;99.90
11083;DHT22;5595;50.186;8.468;2023-05-21T00:13:49;16.90;99.90
11083;DHT22;5595;50.186;8.468;2023-05-21T00:16:16;16.90;99.90
11083;DHT22;5595;50.186;8.468;2023-05-21T00:18:44;16.80;99.90
11083;DHT22;5595;50.186;8.468;2023-05-21T00:21:12;16.90;99.90
11083;DHT22;5595;50.186;8.468;2023-05-21T00:23:41;16.90;99.90
11083;DHT22;5595;50.186;8.468;2023-05-21T00:26:10;16.90;99.90
11083;DHT22;5595;50.186;8.468;2023-05-21T00:28:36;16.80;99.90
11083;DHT22;5595;50.186;8.468;2023-05-21T00:31:03;16.90;99.90
11083;DHT22;5595;50.186;8.468;2023-05-21T00:33:33;16.90;99.90
11083;DHT22;5595;50.186;8.468;2023-05-21T00:36:02;17.00;99.90
11083;DHT22;5595;50.186;8.468;2023-05-21T00:38:28;17.00;99.90
11083;DHT22;5595;50.186;8.468;2023-05-21T00:40:59;16.90;99.90
11083;DHT22;5595;50.186;8.468;2023-05-21T00:43:26;17.10;99.90
11083;DHT22;5595;50.186;8.468;2023-05-21T00:45:53;16.90;99.90
11083;DHT22;5595;50.186;8.468;2023-05-21T00:48:21;17.00;99.90
11083;DHT22;5595;50.186;8.468;2023-05-21T00:50:49;17.10;99.90
11083;DHT22;5595;50.186;8.468;2023-05-21T00:53:17;17.00;99.90
11083;DHT22;5595;50.186;8.468;2023-05-21T00:55:45;17.00;99.90
11083;DHT22;5595;50.186;8.468;2023-05-21T00:58:12;17.00;99.90
11083;DHT22;5595;50.186;8.468;2023-05-21T01:00:39;17.10;99.90
11083;DHT22;5595;50.186;8.468;2023-05-21T01:03:06;17.20;99.90
11083;DHT22;5595;50.186;8.468;2023-05-21T01:05:34;17.10;99.90
11083;DHT22;5595;50.186;8.468;2023-05-21T01:08:01;17.20;99.90
11083;DHT22;5595;50.186;8.468;2023-05-21T01:10:30;17.20;99.90
11083;DHT22;5595;50.186;8.468;2023-05-21T01:12:57;17.20;99.90
11083;DHT22;5595;50.186;8.468;2023-05-21T01:15:25;17.10;99.90
11083;DHT22;5595;50.186;8.468;2023-05-21T01:17:53;17.10;99.90
11083;DHT22;5595;50.186;8.468;2023-05-21T01:20:21;17.00;99.90
11083;DHT22;5595;50.186;8.468;2023-05-21T01:22:52;17.00;99.90
11083;DHT22;5595;50.186;8.468;2023-05-21T01:25:20;16.90;99.90
11083;DHT22;5595;50.186;8.468;2023-05-21T01:27:47;16.90;99.90
11083;DHT22;5595;50.186;8.468;2023-05-21T01:30:14;16.90;99.90
11083;DHT22;5595;50.186;8.468;2023-05-21T01:32:47;17.00;99.90
11083;DHT22;5595;50.186;8.468;2023-05-21T01:35:20;16.90;99.90
11083;DHT22;5595;50.186;8.468;2023-05-21T01:37:53;16.90;99.90
11083;DHT22;5595;50.186;8.468;2023-05-21T01:40:27;16.90;99.90
11083;DHT22;5595;50.186;8.468;2023-05-21T01:42:56;17.00;99.90
11083;DHT22;5595;50.186;8.468;2023-05-21T01:45:24;17.00;99.90
11083;DHT22;5595;50.186;8.468;2023-05-21T01:47:53;16.90;99.90
11083;DHT22;5595;50.186;8.468;2023-05-21T01:50:22;17.00;99.90
11083;DHT22;5595;50.186;8.468;2023-05-21T01:52:53;17.00;99.90
11083;DHT22;5595;50.186;8.468;2023-05-21T01:55:21;17.00;99.90
11083;DHT22;5595;50.186;8.468;2023-05-21T01:57:50;16.90;99.90
11083;DHT22;5595;50.186;8.468;2023-05-21T02:00:18;17.00;99.90
11083;DHT22;5595;50.186;8.468;2023-05-21T02:02:46;17.00;99.90
11083;DHT22;5595;50.186;8.468;2023-05-21T02:05:13;17.10;99.90
11083;DHT22;5595;50.186;8.468;2023-05-21T02:07:40;17.10;99.90
11083;DHT22;5595;50.186;8.468;2023-05-21T02:10:10;17.10;99.90
11083;DHT22;5595;50.186;8.468;2023-05-21T02:12:37;17.20;99.90
11083;DHT22;5595;50.186;8.468;2023-05-21T02:15:05;17.10;99.90
11083;DHT22;5595;50.186;8.468;2023-05-21T02:17:33;17.10;99.90
11083;DHT22;5595;50.186;8.468;2023-05-21T02:20:00;17.00;99.90
11083;DHT22;5595;50.186;8.468;2023-05-21T02:22:36;17.00;99.90
11083;DHT22;5595;50.186;8.468;2023-05-21T02:25:03;17.00;99.90
11083;DHT22;5595;50.186;8.468;2023-05-21T02:27:33;17.00;99.90
11083;DHT22;5595;50.186;8.468;2023-05-21T02:30:01;16.90;99.90
11083;DHT22;5595;50.186;8.468;2023-05-21T02:32:28;16.90;99.90
11083;DHT22;5595;50.186;8.468;2023-05-21T02:34:56;16.90;99.90
11083;DHT22;5595;50.186;8.468;2023-05-21T02:37:24;16.90;99.90
11083;DHT22;5595;50.186;8.468;2023-05-21T02:39:52;16.90;99.90
11083;DHT22;5595;50.186;8.468;2023-05-21T02:42:20;16.80;99.90
11083;DHT22;5595;50.186;8.468;2023-05-21T02:44:49;16.80;99.90
11083;DHT22;5595;50.186;8.468;2023-05-21T02:47:16;16.80;99.90
11083;DHT22;5595;50.186;8.468;2023-05-21T02:49:43;16.80;99.90
11083;DHT22;5595;50.186;8.468;2023-05-21T02:52:10;16.90;99.90
11083;DHT22;5595;50.186;8.468;2023-05-21T02:54:38;16.80;99.90
11083;DHT22;5595;50.186;8.468;2023-05-21T02:57:06;16.90;99.90
11083;DHT22;5595;50.186;8.468;2023-05-21T02:59:33;16.90;99.90
11083;DHT22;5595;50.186;8.468;2023-05-21T03:02:02;16.90;99.90
11083;DHT22;5595;50.186;8.468;2023-05-21T03:04:29;16.90;99.90
11083;DHT22;5595;50.186;8.468;2023-05-21T03:06:58;16.90;99.90
11083;DHT22;5595;50.186;8.468;2023-05-21T03:09:26;16.90;99.90
11083;DHT22;5595;50.186;8.468;2023-05-21T03:11:53;16.90;99.90
11083;DHT22;5595;50.186;8.468;2023-05-21T03:14:21;16.90;99.90
11083;DHT22;5595;50.186;8.468;2023-05-21T03:16:49;17.00;99.90
11083;DHT22;5595;50.186;8.468;2023-05-21T03:19:17;17.00;99.90
11083;DHT22;5595;50.186;8.468;2023-05-21T03:21:45;17.10;99.90
11083;DHT22;5595;50.186;8.468;2023-05-21T03:24:13;17.00;99.90
11083;DHT22;5595;50.186;8.468;2023-05-21T03:26:41;17.10;99.90
11083;DHT22;5595;50.186;8.468;2023-05-21T03:29:08;17.10;99.90
11083;DHT22;5595;50.186;8.468;2023-05-21T03:31:35;17.10;99.90
11083;DHT22;5595;50.186;8.468;2023-05-21T03:34:02;17.10;99.90
11083;DHT22;5595;50.186;8.468;2023-05-21T03:36:31;17.10;99.90
11083;DHT22;5595;50.186;8.468;2023-05-21T03:38:59;17.00;99.90
11083;DHT22;5595;50.186;8.468;2023-05-21T03:41:26;17.10;99.90
11083;DHT22;5595;50.186;8.468;2023-05-21T03:43:53;17.10;99.90
11083;DHT22;5595;50.186;8.468;2023-05-21T03:46:20;17.10;99.90
11083;DHT22;5595;50.186;8.468;2023-05-21T03:48:48;16.90;99.90
11083;DHT22;5595;50.186;8.468;2023-05-21T03:51:15;17.20;99.90
11083;DHT22;5595;50.186;8.468;2023-05-21T03:53:45;17.20;99.90
11083;DHT22;5595;50.186;8.468;2023-05-21T03:56:12;17.20;99.90
11083;DHT22;5595;50.186;8.468;2023-05-21T03:58:39;17.20;99.90
11083;DHT22;5595;50.186;8.468;2023-05-21T04:01:06;17.20;99.90
11083;DHT22;5595;50.186;8.468;2023-05-21T04:03:34;17.20;99.90
11083;DHT22;5595;50.186;8.468;2023-05-21T04:06:01;17.20;99.90
11083;DHT22;5595;50.186;8.468;2023-05-21T04:08:29;17.20;99.90
11083;DHT22;5595;50.186;8.468;2023-05-21T04:10:57;17.20;99.90
11083;DHT22;5595;50.186;8.468;2023-05-21T04:13:24;17.20;99.90
11083;DHT22;5595;50.186;8.468;2023-05-21T04:15:52;17.20;99.90
11083;DHT22;5595;50.186;8.468;2023-05-21T04:18:20;17.20;99.90
11083;DHT22;5595;50.186;8.468;2023-05-21T04:20:48;17.20;99.90
11083;DHT22;5595;50.186;8.468;2023-05-21T04:23:15;17.40;99.90
11083;DHT22;5595;50.186;8.468;2023-05-21T04:25:42;17.40;99.90
11083;DHT22;5595;50.186;8.468;2023-05-21T04:28:11;17.40;99.90
11083;DHT22;5595;50.186;8.468;2023-05-21T04:30:38;17.40;99.90
11083;DHT22;5595;50.186;8.468;2023-05-21T04:33:06;17.40;99.90
11083;DHT22;5595;50.186;8.468;2023-05-21T04:35:34;17.50;99.90
11083;DHT22;5595;50.186;8.468;2023-05-21T04:38:02;17.40;99.90
11083;DHT22;5595;50.186;8.468;2023-05-21T04:40:30;17.50;99.90
11083;DHT22;5595;50.186;8.468;2023-05-21T04:42:58;17.50;99.90
11083;DHT22;5595;50.186;8.468;2023-05-21T04:45:27;17.60;99.90
11083;DHT22;5595;50.186;8.468;2023-05-21T04:47:55;17.70;99.90
11083;DHT22;5595;50.186;8.468;2023-05-21T04:50:25;17.60;99.90
11083;DHT22;5595;50.186;8.468;2023-05-21T04:52:55;17.60;99.90
11083;DHT22;5595;50.186;8.468;2023-05-21T04:55:23;17.70;99.90
11083;DHT22;5595;50.186;8.468;2023-05-21T04:57:50;17.50;99.90
11083;DHT22;5595;50.186;8.468;2023-05-21T05:00:18;17.70;99.90
11083;DHT22;5595;50.186;8.468;2023-05-21T05:02:47;17.80;99.90
11083;DHT22;5595;50.186;8.468;2023-05-21T05:05:14;17.80;99.90
11083;DHT22;5595;50.186;8.468;2023-05-21T05:07:41;18.00;99.90
11083;DHT22;5595;50.186;8.468;2023-05-21T05:10:09;17.90;99.90
11083;DHT22;5595;50.186;8.468;2023-05-21T05:12:36;18.00;99.90
11083;DHT22;5595;50.186;8.468;2023-05-21T05:15:03;18.00;99.90
11083;DHT22;5595;50.186;8.468;2023-05-21T05:17:30;18.20;99.90
11083;DHT22;5595;50.186;8.468;2023-05-21T05:20:00;18.10;99.90
11083;DHT22;5595;50.186;8.468;2023-05-21T05:22:27;18.20;99.90
11083;DHT22;5595;50.186;8.468;2023-05-21T05:24:54;18.30;99.90
11083;DHT22;5595;50.186;8.468;2023-05-21T05:27:22;18.50;99.90
11083;DHT22;5595;50.186;8.468;2023-05-21T05:29:48;18.50;99.90
11083;DHT22;5595;50.186;8.468;2023-05-21T05:32:15;18.60;99.90
11083;DHT22;5595;50.186;8.468;2023-05-21T05:34:44;18.70;99.90
11083;DHT22;5595;50.186;8.468;2023-05-21T05:37:12;18.80;99.90
11083;DHT22;5595;50.186;8.468;2023-05-21T05:39:40;18.80;99.90
11083;DHT22;5595;50.186;8.468;2023-05-21T05:42:07;19.00;99.90
11083;DHT22;5595;50.186;8.468;2023-05-21T05:44:34;19.00;99.90
11083;DHT22;5595;50.186;8.468;2023-05-21T05:47:02;19.10;99.90
11083;DHT22;5595;50.186;8.468;2023-05-21T05:49:33;19.20;99.90
11083;DHT22;5595;50.186;8.468;2023-05-21T05:52:01;19.20;99.90
11083;DHT22;5595;50.186;8.468;2023-05-21T05:54:29;19.30;99.90
11083;DHT22;5595;50.186;8.468;2023-05-21T05:56:57;19.40;99.90
11083;DHT22;5595;50.186;8.468;2023-05-21T05:59:23;19.50;99.90
11083;DHT22;5595;50.186;8.468;2023-05-21T06:01:50;19.60;99.90
11083;DHT22;5595;50.186;8.468;2023-05-21T06:04:17;19.70;99.90
11083;DHT22;5595;50.186;8.468;2023-05-21T06:06:44;19.90;99.90
11083;DHT22;5595;50.186;8.468;2023-05-21T06:09:12;20.00;99.90
11083;DHT22;5595;50.186;8.468;2023-05-21T06:11:40;20.10;99.90
11083;DHT22;5595;50.186;8.468;2023-05-21T06:14:07;20.10;99.90
11083;DHT22;5595;50.186;8.468;2023-05-21T06:16:34;20.20;99.90
11083;DHT22;5595;50.186;8.468;2023-05-21T06:19:01;20.30;99.90
11083;DHT22;5595;50.186;8.468;2023-05-21T06:21:28;20.40;99.90
11083;DHT22;5595;50.186;8.468;2023-05-21T06:23:55;20.50;99.90
11083;DHT22;5595;50.186;8.468;2023-05-21T06:26:22;20.60;99.90
11083;DHT22;5595;50.186;8.468;2023-05-21T06:28:51;20.60;99.90
11083;DHT22;5595;50.186;8.468;2023-05-21T06:31:18;20.70;99.90
11083;DHT22;5595;50.186;8.468;2023-05-21T06:33:47;20.80;99.90
11083;DHT22;5595;50.186;8.468;2023-05-21T06:36:14;20.90;99.90
11083;DHT22;5595;50.186;8.468;2023-05-21T06:38:42;20.90;99.90
11083;DHT22;5595;50.186;8.468;2023-05-21T06:41:09;21.00;99.90
11083;DHT22;5595;50.186;8.468;2023-05-21T06:43:36;20.90;99.90
11083;DHT22;5595;50.186;8.468;2023-05-21T06:46:05;21.10;99.90
11083;DHT22;5595;50.186;8.468;2023-05-21T06:48:32;20.90;99.90
11083;DHT22;5595;50.186;8.468;2023-05-21T06:50:59;20.90;99.90
11083;DHT22;5595;50.186;8.468;2023-05-21T06:53:26;20.90;99.90
11083;DHT22;5595;50.186;8.468;2023-05-21T06:55:53;20.90;99.90
11083;DHT22;5595;50.186;8.468;2023-05-21T06:58:20;20.90;99.90
11083;DHT22;5595;50.186;8.468;2023-05-21T07:00:48;20.80;99.90
11083;DHT22;5595;50.186;8.468;2023-05-21T07:03:16;20.80;99.90
11083;DHT22;5595;50.186;8.468;2023-05-21T07:05:43;20.90;99.90
11083;DHT22;5595;50.186;8.468;2023-05-21T07:08:10;20.80;99.90
11083;DHT22;5595;50.186;8.468;2023-05-21T07:10:36;20.80;99.90
11083;DHT22;5595;50.186;8.468;2023-05-21T07:13:04;21.00;99.90
11083;DHT22;5595;50.186;8.468;2023-05-21T07:15:31;21.00;99.90
11083;DHT22;5595;50.186;8.468;2023-05-21T07:18:02;21.10;99.90
11083;DHT22;5595;50.186;8.468;2023-05-21T07:20:31;21.20;99.90
11083;DHT22;5595;50.186;8.468;2023-05-21T07:22:58;21.20;99.90
11083;DHT22;5595;50.186;8.468;2023-05-21T07:25:25;21.40;99.90
11083;DHT22;5595;50.186;8.468;2023-05-21T07:27:53;21.50;99.90
11083;DHT22;5595;50.186;8.468;2023-05-21T07:30:20;21.60;99.90
11083;DHT22;5595;50.186;8.468;2023-05-21T07:32:50;21.70;99.90
11083;DHT22;5595;50.186;8.468;2023-05-21T07:35:21;21.60;99.90
11083;DHT22;5595;50.186;8.468;2023-05-21T07:37:50;21.40;99.90
11083;DHT22;5595;50.186;8.468;2023-05-21T07:40:17;21.20;99.90
11083;DHT22;5595;50.186;8.468;2023-05-21T07:42:44;21.10;99.90
11083;DHT22;5595;50.186;8.468;2023-05-21T07:45:12;21.00;99.90
11083;DHT22;5595;50.186;8.468;2023-05-21T07:47:39;21.00;99.90
11083;DHT22;5595;50.186;8.468;2023-05-21T07:50:06;21.10;99.90
11083;DHT22;5595;50.186;8.468;2023-05-21T07:52:33;21.10;99.90
11083;DHT22;5595;50.186;8.468;2023-05-21T07:55:02;21.20;99.90
11083;DHT22;5595;50.186;8.468;2023-05-21T07:57:29;21.40;99.90
11083;DHT22;5595;50.186;8.468;2023-05-21T07:59:56;21.50;99.90
11083;DHT22;5595;50.186;8.468;2023-05-21T08:02:24;21.50;99.90
11083;DHT22;5595;50.186;8.468;2023-05-21T08:04:57;21.50;99.90
11083;DHT22;5595;50.186;8.468;2023-05-21T08:07:26;21.60;99.90
11083;DHT22;5595;50.186;8.468;2023-05-21T08:09:53;21.60;99.90
11083;DHT22;5595;50.186;8.468;2023-05-21T08:12:22;21.60;99.90
11083;DHT22;5595;50.186;8.468;2023-05-21T08:14:49;21.70;99.90
11083;DHT22;5595;50.186;8.468;2023-05-21T08:17:17;21.90;99.90
11083;DHT22;5595;50.186;8.468;2023-05-21T08:19:44;22.00;99.90
11083;DHT22;5595;50.186;8.468;2023-05-21T08:22:11;22.10;99.90
11083;DHT22;5595;50.186;8.468;2023-05-21T08:24:38;22.10;99.90
11083;DHT22;5595;50.186;8.468;2023-05-21T08:27:05;22.20;99.90
11083;DHT22;5595;50.186;8.468;2023-05-21T08:29:34;22.30;99.90
11083;DHT22;5595;50.186;8.468;2023-05-21T08:32:01;22.40;99.90
11083;DHT22;5595;50.186;8.468;2023-05-21T08:34:28;22.50;99.90
11083;DHT22;5595;50.186;8.468;2023-05-21T08:36:56;22.60;99.90
11083;DHT22;5595;50.186;8.468;2023-05-21T08:39:23;22.70;99.90
11083;DHT22;5595;50.186;8.468;2023-05-21T08:41:56;22.70;99.90
11083;DHT22;5595;50.186;8.468;2023-05-21T08:44:26;22.80;99.90
11083;DHT22;5595;50.186;8.468;2023-05-21T08:46:56;22.80;99.90
11083;DHT22;5595;50.186;8.468;2023-05-21T08:49:26;22.70;99.90
11083;DHT22;5595;50.186;8.468;2023-05-21T08:51:56;22.90;99.90
11083;DHT22;5595;50.186;8.468;2023-05-21T08:54:24;23.00;99.90
11083;DHT22;5595;50.186;8.468;2023-05-21T08:56:52;23.10;99.90
11083;DHT22;5595;50.186;8.468;2023-05-21T08:59:20;23.20;99.90
11083;DHT22;5595;50.186;8.468;2023-05-21T09:01:48;23.20;99.90
11083;DHT22;5595;50.186;8.468;2023-05-21T09:04:18;23.40;99.90
11083;DHT22;5595;50.186;8.468;2023-05-21T09:06:46;23.40;99.90
11083;DHT22;5595;50.186;8.468;2023-05-21T09:09:18;23.50;99.90
11083;DHT22;5595;50.186;8.468;2023-05-21T09:11:51;23.50;99.90
11083;DHT22;5595;50.186;8.468;2023-05-21T09:14:18;23.40;99.90
11083;DHT22;5595;50.186;8.468;2023-05-21T09:16:47;23.20;99.90
11083;DHT22;5595;50.186;8.468;2023-05-21T09:19:14;23.30;99.90
11083;DHT22;5595;50.186;8.468;2023-05-21T09:21:42;23.40;99.90
11083;DHT22;5595;50.186;8.468;2023-05-21T09:24:09;23.40;99.90
11083;DHT22;5595;50.186;8.468;2023-05-21T09:26:37;23.40;99.90
11083;DHT22;5595;50.186;8.468;2023-05-21T09:29:08;23.50;99.90
11083;DHT22;5595;50.186;8.468;2023-05-21T09:31:35;23.70;99.90
11083;DHT22;5595;50.186;8.468;2023-05-21T09:34:02;23.80;99.90
11083;DHT22;5595;50.186;8.468;2023-05-21T09:36:29;23.90;99.90
11083;DHT22;5595;50.186;8.468;2023-05-21T09:38:58;24.00;99.90
11083;DHT22;5595;50.186;8.468;2023-05-21T09:41:30;23.70;99.90
11083;DHT22;5595;50.186;8.468;2023-05-21T09:43:59;23.50;99.90
11083;DHT22;5595;50.186;8.468;2023-05-21T09:46:26;23.40;99.90
11083;DHT22;5595;50.186;8.468;2023-05-21T09:48:53;23.30;99.90
11083;DHT22;5595;50.186;8.468;2023-05-21T09:51:20;23.30;99.90
11083;DHT22;5595;50.186;8.468;2023-05-21T09:53:54;23.20;99.90
11083;DHT22;5595;50.186;8.468;2023-05-21T09:56:25;23.30;99.90
11083;DHT22;5595;50.186;8.468;2023-05-21T09:58:55;23.30;99.90
11083;DHT22;5595;50.186;8.468;2023-05-21T10:01:25;23.40;99.90
11083;DHT22;5595;50.186;8.468;2023-05-21T10:03:54;23.40;99.90
11083;DHT22;5595;50.186;8.468;2023-05-21T10:06:24;23.60;99.90
11083;DHT22;5595;50.186;8.468;2023-05-21T10:08:53;23.70;99.90
11083;DHT22;5595;50.186;8.468;2023-05-21T10:11:24;23.60;99.90
11083;DHT22;5595;50.186;8.468;2023-05-21T10:13:56;23.70;99.90
11083;DHT22;5595;50.186;8.468;2023-05-21T10:16:23;23.70;99.90
11083;DHT22;5595;50.186;8.468;2023-05-21T10:18:50;24.00;99.90
11083;DHT22;5595;50.186;8.468;2023-05-21T10:21:20;24.10;99.90
11083;DHT22;5595;50.186;8.468;2023-05-21T10:23:49;24.30;99.90
11083;DHT22;5595;50.186;8.468;2023-05-21T10:26:17;24.50;99.90
11083;DHT22;5595;50.186;8.468;2023-05-21T10:28:51;24.90;99.90
11083;DHT22;5595;50.186;8.468;2023-05-21T10:31:19;24.90;99.90
11083;DHT22;5595;50.186;8.468;2023-05-21T10:33:47;25.00;99.90
11083;DHT22;5595;50.186;8.468;2023-05-21T10:36:15;25.10;99.90
11083;DHT22;5595;50.186;8.468;2023-05-21T10:38:43;25.10;99.90
11083;DHT22;5595;50.186;8.468;2023-05-21T10:41:11;25.10;99.90
11083;DHT22;5595;50.186;8.468;2023-05-21T10:43:53;25.20;99.90
11083;DHT22;5595;50.186;8.468;2023-05-21T10:46:55;25.20;99.90
11083;DHT22;5595;50.186;8.468;2023-05-21T10:49:50;25.20;99.90
11083;DHT22;5595;50.186;8.468;2023-05-21T10:52:34;25.30;99.90
11083;DHT22;5595;50.186;8.468;2023-05-21T10:55:19;25.30;99.90
11083;DHT22;5595;50.186;8.468;2023-05-21T10:58:20;25.40;99.90
11083;DHT22;5595;50.186;8.468;2023-05-21T11:00:52;25.40;99.90
11083;DHT22;5595;50.186;8.468;2023-05-21T11:03:21;25.30;99.90
11083;DHT22;5595;50.186;8.468;2023-05-21T11:05:51;25.20;99.90
11083;DHT22;5595;50.186;8.468;2023-05-21T11:08:21;25.20;99.90
11083;DHT22;5595;50.186;8.468;2023-05-21T11:10:52;25.10;99.90
11083;DHT22;5595;50.186;8.468;2023-05-21T11:13:19;25.00;99.90
11083;DHT22;5595;50.186;8.468;2023-05-21T11:16:05;24.90;99.90
11083;DHT22;5595;50.186;8.468;2023-05-21T11:18:55;25.00;99.90
11083;DHT22;5595;50.186;8.468;2023-05-21T11:21:23;25.20;99.90
11083;DHT22;5595;50.186;8.468;2023-05-21T11:23:53;25.30;99.90
11083;DHT22;5595;50.186;8.468;2023-05-21T11:26:24;25.30;99.70
11083;DHT22;5595;50.186;8.468;2023-05-21T11:29:05;25.20;99.20
11083;DHT22;5595;50.186;8.468;2023-05-21T11:31:37;25.10;99.50
11083;DHT22;5595;50.186;8.468;2023-05-21T11:34:18;25.10;99.20
11083;DHT22;5595;50.186;8.468;2023-05-21T11:36:48;25.10;99.40
11083;DHT22;5595;50.186;8.468;2023-05-21T11:39:18;25.10;99.90
11083;DHT22;5595;50.186;8.468;2023-05-21T11:41:51;25.30;99.90
11083;DHT22;5595;50.186;8.468;2023-05-21T11:44:21;25.40;99.50
11083;DHT22;5595;50.186;8.468;2023-05-21T11:47:10;25.40;99.10
11083;DHT22;5595;50.186;8.468;2023-05-21T11:49:38;25.30;99.20
11083;DHT22;5595;50.186;8.468;2023-05-21T11:52:07;25.40;99.00
11083;DHT22;5595;50.186;8.468;2023-05-21T11:54:39;25.50;98.90
11083;DHT22;5595;50.186;8.468;2023-05-21T11:57:07;25.50;98.70
11083;DHT22;5595;50.186;8.468;2023-05-21T11:59:35;25.50;98.70
11083;DHT22;5595;50.186;8.468;2023-05-21T12:02:03;25.50;98.50
11083;DHT22;5595;50.186;8.468;2023-05-21T12:04:33;25.50;98.30
11083;DHT22;5595;50.186;8.468;2023-05-21T12:07:02;25.60;98.20
11083;DHT22;5595;50.186;8.468;2023-05-21T12:09:41;25.50;98.00
11083;DHT22;5595;50.186;8.468;2023-05-21T12:12:08;25.40;98.10
11083;DHT22;5595;50.186;8.468;2023-05-21T12:14:36;25.40;97.90
11083;DHT22;5595;50.186;8.468;2023-05-21T12:17:03;25.40;98.20
11083;DHT22;5595;50.186;8.468;2023-05-21T12:19:33;25.60;98.50
11083;DHT22;5595;50.186;8.468;2023-05-21T12:22:01;25.80;98.40
11083;DHT22;5595;50.186;8.468;2023-05-21T12:24:34;25.90;98.00
11083;DHT22;5595;50.186;8.468;2023-05-21T12:27:08;26.10;97.50
11083;DHT22;5595;50.186;8.468;2023-05-21T12:29:38;26.20;97.10
11083;DHT22;5595;50.186;8.468;2023-05-21T12:32:07;26.30;96.60
11083;DHT22;5595;50.186;8.468;2023-05-21T12:34:39;26.40;96.60
11083;DHT22;5595;50.186;8.468;2023-05-21T12:37:10;26.60;96.70
11083;DHT22;5595;50.186;8.468;2023-05-21T12:39:41;26.70;96.70
11083;DHT22;5595;50.186;8.468;2023-05-21T12:42:09;26.50;95.00
11083;DHT22;5595;50.186;8.468;2023-05-21T12:44:38;26.20;94.60
11083;DHT22;5595;50.186;8.468;2023-05-21T12:47:06;26.20;94.70
11083;DHT22;5595;50.186;8.468;2023-05-21T12:49:34;26.10;94.50
11083;DHT22;5595;50.186;8.468;2023-05-21T12:52:08;26.10;94.50
11083;DHT22;5595;50.186;8.468;2023-05-21T12:54:37;26.30;94.90
11083;DHT22;5595;50.186;8.468;2023-05-21T12:57:06;26.40;94.80
11083;DHT22;5595;50.186;8.468;2023-05-21T12:59:50;26.60;94.80
11083;DHT22;5595;50.186;8.468;2023-05-21T13:02:21;26.70;94.30
11083;DHT22;5595;50.186;8.468;2023-05-21T13:04:54;26.70;94.60
11083;DHT22;5595;50.186;8.468;2023-05-21T13:07:23;26.70;93.80
11083;DHT22;5595;50.186;8.468;2023-05-21T13:09:50;26.60;93.70
11083;DHT22;5595;50.186;8.468;2023-05-21T13:12:18;26.30;92.80
11083;DHT22;5595;50.186;8.468;2023-05-21T13:14:47;26.10;93.00
11083;DHT22;5595;50.186;8.468;2023-05-21T13:17:14;26.10;93.40
11083;DHT22;5595;50.186;8.468;2023-05-21T13:19:41;26.20;93.50
11083;DHT22;5595;50.186;8.468;2023-05-21T13:22:08;26.40;93.70
11083;DHT22;5595;50.186;8.468;2023-05-21T13:24:37;26.60;93.40
11083;DHT22;5595;50.186;8.468;2023-05-21T13:27:04;26.70;92.90
11083;DHT22;5595;50.186;8.468;2023-05-21T13:29:34;26.60;92.80
11083;DHT22;5595;50.186;8.468;2023-05-21T13:32:04;26.70;93.00
11083;DHT22;5595;50.186;8.468;2023-05-21T13:34:31;26.70;92.30
11083;DHT22;5595;50.186;8.468;2023-05-21T13:37:01;26.70;92.10
11083;DHT22;5595;50.186;8.468;2023-05-21T13:39:34;26.50;91.40
11083;DHT22;5595;50.186;8.468;2023-05-21T13:42:06;26.50;91.70
11083;DHT22;5595;50.186;8.468;2023-05-21T13:44:42;26.40;90.90
11083;DHT22;5595;50.186;8.468;2023-05-21T13:47:14;26.40;91.30
11083;DHT22;5595;50.186;8.468;2023-05-21T13:49:56;26.40;91.40
11083;DHT22;5595;50.186;8.468;2023-05-21T13:52:23;26.40;91.30
11083;DHT22;5595;50.186;8.468;2023-05-21T13:54:50;26.40;91.60
11083;DHT22;5595;50.186;8.468;2023-05-21T13:57:26;26.50;91.60
11083;DHT22;5595;50.186;8.468;2023-05-21T14:00:01;26.60;91.50
11083;DHT22;5595;50.186;8.468;2023-05-21T14:02:45;26.80;91.50
11083;DHT22;5595;50.186;8.468;2023-05-21T14:05:24;26.80;91.60
11083;DHT22;5595;50.186;8.468;2023-05-21T14:07:57;26.80;90.50
11083;DHT22;5595;50.186;8.468;2023-05-21T14:10:24;26.70;90.20
11083;DHT22;5595;50.186;8.468;2023-05-21T14:12:55;26.70;89.80
11083;DHT22;5595;50.186;8.468;2023-05-21T14:15:28;26.60;89.00
11083;DHT22;5595;50.186;8.468;2023-05-21T14:17:59;26.60;88.20
11083;DHT22;5595;50.186;8.468;2023-05-21T14:20:26;26.50;89.20
11083;DHT22;5595;50.186;8.468;2023-05-21T14:22:53;26.60;89.40
11083;DHT22;5595;50.186;8.468;2023-05-21T14:25:20;26.80;89.00
11083;DHT22;5595;50.186;8.468;2023-05-21T14:27:47;26.90;88.00
11083;DHT22;5595;50.186;8.468;2023-05-21T14:30:19;27.10;87.40
11083;DHT22;5595;50.186;8.468;2023-05-21T14:32:45;27.20;87.40
11083;DHT22;5595;50.186;8.468;2023-05-21T14:35:12;27.20;86.20
11083;DHT22;5595;50.186;8.468;2023-05-21T14:37:40;27.20;85.90
11083;DHT22;5595;50.186;8.468;2023-05-21T14:40:08;27.20;86.30
11083;DHT22;5595;50.186;8.468;2023-05-21T14:42:35;27.30;86.50
11083;DHT22;5595;50.186;8.468;2023-05-21T14:45:02;27.30;85.20
11083;DHT22;5595;50.186;8.468;2023-05-21T14:47:30;27.40;85.90
11083;DHT22;5595;50.186;8.468;2023-05-21T14:49:57;27.40;83.10
11083;DHT22;5595;50.186;8.468;2023-05-21T14:52:25;27.40;83.50
11083;DHT22;5595;50.186;8.468;2023-05-21T14:54:52;27.40;82.50
11083;DHT22;5595;50.186;8.468;2023-05-21T14:57:19;27.30;81.30
11083;DHT22;5595;50.186;8.468;2023-05-21T14:59:46;27.30;81.50
11083;DHT22;5595;50.186;8.468;2023-05-21T15:02:13;27.30;78.80
11083;DHT22;5595;50.186;8.468;2023-05-21T15:04:41;27.20;80.00
11083;DHT22;5595;50.186;8.468;2023-05-21T15:07:08;27.30;81.20
11083;DHT22;5595;50.186;8.468;2023-05-21T15:09:35;27.40;81.00
11083;DHT22;5595;50.186;8.468;2023-05-21T15:12:02;27.40;80.90
11083;DHT22;5595;50.186;8.468;2023-05-21T15:14:28;27.50;80.60
11083;DHT22;5595;50.186;8.468;2023-05-21T15:16:55;27.50;81.40
11083;DHT22;5595;50.186;8.468;2023-05-21T15:19:22;27.70;81.40
11083;DHT22;5595;50.186;8.468;2023-05-21T15:21:51;27.80;81.50
11083;DHT22;5595;50.186;8.468;2023-05-21T15:24:18;27.90;82.40
11083;DHT22;5595;50.186;8.468;2023-05-21T15:26:44;28.10;81.50
11083;DHT22;5595;50.186;8.468;2023-05-21T15:29:13;28.10;80.60
11083;DHT22;5595;50.186;8.468;2023-05-21T15:31:40;28.20;80.30
11083;DHT22;5595;50.186;8.468;2023-05-21T15:34:07;28.30;79.80
11083;DHT22;5595;50.186;8.468;2023-05-21T15:36:34;28.20;78.60
11083;DHT22;5595;50.186;8.468;2023-05-21T15:39:03;28.20;78.40
11083;DHT22;5595;50.186;8.468;2023-05-21T15:41:34;28.30;79.00
11083;DHT22;5595;50.186;8.468;2023-05-21T15:44:02;28.30;77.90
11083;DHT22;5595;50.186;8.468;2023-05-21T15:46:29;28.20;77.20
11083;DHT22;5595;50.186;8.468;2023-05-21T15:48:56;28.20;77.10
11083;DHT22;5595;50.186;8.468;2023-05-21T15:51:23;28.20;76.30
11083;DHT22;5595;50.186;8.468;2023-05-21T15:53:50;28.20;76.80
11083;DHT22;5595;50.186;8.468;2023-05-21T15:56:18;28.30;76.10